METAR question

drumminpilot

Well-Known Member
So I'm sitting here bored at work, and I pulled up the METAR for Fayetteville, AR, and saw something that I wasn't sure what it meant.
[ QUOTE ]
KFYV 041953Z 15013G24KT 10SM SCT028 19/15 A2963 RMK AO2 PK WND 19027/1935 PRESFR SLP025 T01890150

[/ QUOTE ]

What does PRESFR mean?
 

sbe

Well-Known Member
[ QUOTE ]
What does PRESFR mean?

[/ QUOTE ]

pressure falling rapidly.

Sarah
 
Top